createdAt,value
2018-01-24T00:00:39.079Z,0
2018-01-24T00:01:40.966Z,0
2018-01-24T00:02:42.902Z,0
2018-01-24T00:03:44.654Z,0
2018-01-24T00:04:46.449Z,0
2018-01-24T00:05:48.313Z,0
2018-01-24T00:06:50.172Z,0
2018-01-24T00:07:52.038Z,0
2018-01-24T00:09:06.183Z,0
2018-01-24T00:10:08.046Z,0
2018-01-24T00:11:09.909Z,0
2018-01-24T00:12:11.792Z,0
2018-01-24T00:13:13.614Z,0
2018-01-24T00:14:15.430Z,0
2018-01-24T00:15:17.292Z,0
2018-01-24T00:16:19.172Z,0
2018-01-24T00:17:21.042Z,0
2018-01-24T00:18:35.185Z,0
2018-01-24T00:19:37.055Z,0
2018-01-24T00:20:38.937Z,0
2018-01-24T00:21:40.818Z,0
2018-01-24T00:22:42.638Z,0
2018-01-24T00:23:44.459Z,0
2018-01-24T00:24:46.342Z,0
2018-01-24T00:25:48.202Z,0
2018-01-24T00:26:50.084Z,0
2018-01-24T00:28:04.212Z,0
2018-01-24T00:29:06.079Z,0
2018-01-24T00:30:07.961Z,0
2018-01-24T00:31:09.840Z,0
2018-01-24T00:32:11.642Z,0
2018-01-24T00:33:13.437Z,0
2018-01-24T00:34:15.304Z,0
2018-01-24T00:35:17.187Z,0
2018-01-24T00:36:19.041Z,0
2018-01-24T00:37:33.168Z,0
2018-01-24T00:38:35.028Z,0
2018-01-24T00:39:36.891Z,0
2018-01-24T00:40:38.746Z,0
2018-01-24T00:41:40.544Z,0
2018-01-24T00:42:42.341Z,0
2018-01-24T00:43:44.223Z,0
2018-01-24T00:44:46.107Z,0
2018-01-24T00:45:47.992Z,0
2018-01-24T00:47:02.120Z,0
2018-01-24T00:48:04.003Z,0
2018-01-24T00:49:05.863Z,0
2018-01-24T00:50:07.726Z,0
2018-01-24T00:51:09.546Z,0
2018-01-24T00:52:11.363Z,0
2018-01-24T00:53:13.220Z,0
2018-01-24T00:54:15.083Z,0
2018-01-24T00:55:16.938Z,0
2018-01-24T00:56:31.074Z,0
2018-01-24T00:57:32.954Z,0
2018-01-24T00:58:34.813Z,0
2018-01-24T00:59:36.670Z,0
2018-01-24T01:00:38.472Z,0
2018-01-24T01:01:40.292Z,0
2018-01-24T01:02:42.171Z,0
2018-01-24T01:03:44.031Z,0
2018-01-24T01:04:45.889Z,0
2018-01-24T01:06:00.027Z,0
2018-01-24T01:07:01.911Z,0
2018-01-24T01:08:03.791Z,0
2018-01-24T01:09:05.673Z,0
2018-01-24T01:10:07.490Z,0
2018-01-24T01:11:09.292Z,0
2018-01-24T01:12:11.170Z,0
2018-01-24T01:13:13.028Z,0
2018-01-24T01:14:14.888Z,0
2018-01-24T01:15:29.033Z,0
2018-01-24T01:16:30.893Z,0
2018-01-24T01:17:32.760Z,0
2018-01-24T01:18:34.637Z,0
2018-01-24T01:19:36.440Z,0
2018-01-24T01:20:38.256Z,0
2018-01-24T01:21:40.116Z,0
2018-01-24T01:22:41.981Z,0
2018-01-24T01:23:43.843Z,0
2018-01-24T01:24:58.047Z,0
2018-01-24T01:25:59.933Z,0
2018-01-24T01:27:01.793Z,0
2018-01-24T01:28:03.656Z,0
2018-01-24T01:29:05.475Z,0
2018-01-24T01:30:07.271Z,0
2018-01-24T01:31:09.135Z,0
2018-01-24T01:32:11.013Z,0
2018-01-24T01:33:12.882Z,0
2018-01-24T01:34:27.009Z,0
2018-01-24T01:35:28.897Z,0
2018-01-24T01:36:30.778Z,0
2018-01-24T01:37:32.657Z,0
2018-01-24T01:38:34.458Z,0
2018-01-24T01:39:36.277Z,0
2018-01-24T01:40:38.159Z,0
2018-01-24T01:41:40.041Z,0
2018-01-24T01:42:41.932Z,0
2018-01-24T01:43:56.079Z,0
2018-01-24T01:44:57.955Z,0
2018-01-24T01:45:59.820Z,0
2018-01-24T01:47:01.702Z,0
2018-01-24T01:48:03.520Z,0
2018-01-24T01:49:05.319Z,0
2018-01-24T01:50:07.201Z,0
2018-01-24T01:51:09.085Z,0
2018-01-24T01:52:10.972Z,0
2018-01-24T01:53:25.118Z,0
2018-01-24T01:54:26.983Z,0
2018-01-24T01:55:28.846Z,0
2018-01-24T01:56:30.725Z,0
2018-01-24T01:57:32.523Z,0
2018-01-24T01:58:34.323Z,0
2018-01-24T01:59:36.186Z,0
2018-01-24T02:00:38.066Z,0
2018-01-24T02:01:39.935Z,0
2018-01-24T02:02:54.084Z,0
2018-01-24T02:03:55.948Z,0
2018-01-24T02:04:57.830Z,0
2018-01-24T02:05:59.694Z,0
2018-01-24T02:07:01.513Z,0
2018-01-24T02:08:03.312Z,0
2018-01-24T02:09:05.195Z,0
2018-01-24T02:10:07.079Z,0
2018-01-24T02:11:08.945Z,0
2018-01-24T02:12:23.073Z,0
2018-01-24T02:13:24.955Z,0
2018-01-24T02:14:26.817Z,0
2018-01-24T02:15:28.695Z,0
2018-01-24T02:16:30.494Z,0
2018-01-24T02:17:32.292Z,0
2018-01-24T02:18:34.155Z,0
2018-01-24T02:19:36.012Z,0
2018-01-24T02:20:37.877Z,0
2018-01-24T02:21:52.025Z,0
2018-01-24T02:22:53.890Z,0
2018-01-24T02:23:55.752Z,0
2018-01-24T02:24:57.637Z,0
2018-01-24T02:25:59.434Z,0
2018-01-24T02:27:01.233Z,0
2018-01-24T02:28:03.112Z,0
2018-01-24T02:29:04.973Z,0
2018-01-24T02:30:06.840Z,0
2018-01-24T02:31:21.046Z,0
2018-01-24T02:32:22.924Z,0
2018-01-24T02:33:24.791Z,0
2018-01-24T02:34:26.672Z,0
2018-01-24T02:35:28.473Z,0
2018-01-24T02:36:30.272Z,0
2018-01-24T02:37:32.132Z,0
2018-01-24T02:38:34.000Z,0
2018-01-24T02:39:35.887Z,0
2018-01-24T02:40:50.039Z,0
2018-01-24T02:41:51.924Z,0
2018-01-24T02:42:53.810Z,0
2018-01-24T02:43:55.685Z,0
2018-01-24T02:44:57.485Z,0
2018-01-24T02:45:59.280Z,0
2018-01-24T02:47:01.142Z,0
2018-01-24T02:48:03.004Z,0
2018-01-24T02:49:04.862Z,0
2018-01-24T02:50:19.008Z,0
2018-01-24T02:51:20.876Z,0
2018-01-24T02:52:22.761Z,0
2018-01-24T02:53:24.644Z,0
2018-01-24T02:54:26.437Z,0
2018-01-24T02:55:28.252Z,0
2018-01-24T02:56:30.118Z,0
2018-01-24T02:57:31.972Z,0
2018-01-24T02:58:33.834Z,0
2018-01-24T02:59:47.957Z,0
2018-01-24T03:00:49.814Z,0
2018-01-24T03:01:51.680Z,0
2018-01-24T03:02:53.554Z,0
2018-01-24T03:03:55.360Z,0
2018-01-24T03:04:57.173Z,0
2018-01-24T03:05:59.030Z,0
2018-01-24T03:07:00.893Z,0
2018-01-24T03:08:02.755Z,0
2018-01-24T03:09:16.880Z,0
2018-01-24T03:10:18.751Z,0
2018-01-24T03:11:20.632Z,0
2018-01-24T03:12:22.487Z,0
2018-01-24T03:13:24.287Z,0
2018-01-24T03:14:26.103Z,0
2018-01-24T03:15:27.964Z,0
2018-01-24T03:16:29.823Z,0
2018-01-24T03:17:31.681Z,0
2018-01-24T03:18:45.829Z,0
2018-01-24T03:19:47.699Z,0
2018-01-24T03:20:49.578Z,0
2018-01-24T03:21:51.460Z,0
2018-01-24T03:22:53.276Z,0
2018-01-24T03:23:55.080Z,0
2018-01-24T03:24:56.959Z,0
2018-01-24T03:25:58.821Z,0
2018-01-24T03:27:00.682Z,0
2018-01-24T03:28:14.835Z,0
2018-01-24T03:29:16.717Z,0
2018-01-24T03:30:18.596Z,0
2018-01-24T03:31:20.452Z,0
2018-01-24T03:32:22.251Z,0
2018-01-24T03:33:24.048Z,0
2018-01-24T03:34:25.925Z,0
2018-01-24T03:35:27.790Z,0
2018-01-24T03:36:29.654Z,0
2018-01-24T03:37:43.805Z,0
2018-01-24T03:38:45.671Z,0
2018-01-24T03:39:47.542Z,0
2018-01-24T03:40:49.402Z,0
2018-01-24T03:41:51.226Z,0
2018-01-24T03:42:53.044Z,0
2018-01-24T03:43:54.922Z,0
2018-01-24T03:44:56.785Z,0
2018-01-24T03:45:58.645Z,0
2018-01-24T03:47:12.791Z,0
2018-01-24T03:48:14.678Z,0
2018-01-24T03:49:16.556Z,0
2018-01-24T03:50:18.414Z,0
2018-01-24T03:51:20.230Z,0
2018-01-24T03:52:22.031Z,0
2018-01-24T03:53:23.911Z,0
2018-01-24T03:54:25.771Z,0
2018-01-24T03:55:27.630Z,0
2018-01-24T03:56:41.833Z,0
2018-01-24T03:57:43.716Z,0
2018-01-24T03:58:45.600Z,0
2018-01-24T03:59:47.486Z,0
2018-01-24T04:00:49.305Z,0
2018-01-24T04:01:51.125Z,0
2018-01-24T04:02:53.007Z,0
2018-01-24T04:03:54.887Z,0
2018-01-24T04:04:56.749Z,0
2018-01-24T04:06:10.952Z,0
2018-01-24T04:07:12.832Z,0
2018-01-24T04:08:14.694Z,0
2018-01-24T04:09:16.557Z,0
2018-01-24T04:10:18.376Z,0
2018-01-24T04:11:20.170Z,0
2018-01-24T04:12:22.032Z,0
2018-01-24T04:13:23.895Z,0
2018-01-24T04:14:25.771Z,0
2018-01-24T04:15:39.957Z,0
2018-01-24T04:16:41.819Z,0
2018-01-24T04:17:43.695Z,0
2018-01-24T04:18:45.557Z,0
2018-01-24T04:19:47.353Z,0
2018-01-24T04:20:49.153Z,0
2018-01-24T04:21:51.034Z,0
2018-01-24T04:22:52.893Z,0
2018-01-24T04:23:54.757Z,0
2018-01-24T04:25:08.907Z,0
2018-01-24T04:26:10.794Z,0
2018-01-24T04:27:12.655Z,0
2018-01-24T04:28:14.510Z,0
2018-01-24T04:29:16.313Z,0
2018-01-24T04:30:18.113Z,0
2018-01-24T04:31:19.968Z,0
2018-01-24T04:32:21.833Z,0
2018-01-24T04:33:23.691Z,0
2018-01-24T04:34:37.891Z,0
2018-01-24T04:35:39.775Z,0
2018-01-24T04:36:41.653Z,0
2018-01-24T04:37:43.517Z,0
2018-01-24T04:38:45.338Z,0
2018-01-24T04:39:47.130Z,0
2018-01-24T04:40:48.989Z,0
2018-01-24T04:41:50.853Z,0
2018-01-24T04:42:52.733Z,0
2018-01-24T04:44:06.911Z,0
2018-01-24T04:45:08.793Z,0
2018-01-24T04:46:10.656Z,0
2018-01-24T04:47:12.514Z,0
2018-01-24T04:48:14.312Z,0
2018-01-24T04:49:16.114Z,0
2018-01-24T04:50:17.994Z,0
2018-01-24T04:51:19.878Z,0
2018-01-24T04:52:21.738Z,0
2018-01-24T04:53:35.938Z,0
2018-01-24T04:54:37.801Z,0
2018-01-24T04:55:39.682Z,0
2018-01-24T04:56:41.565Z,0
2018-01-24T04:57:43.377Z,0
2018-01-24T04:58:45.177Z,0
2018-01-24T04:59:47.058Z,0
2018-01-24T05:00:48.925Z,0
2018-01-24T05:01:50.808Z,0
2018-01-24T05:03:04.953Z,0
2018-01-24T05:04:06.814Z,0
2018-01-24T05:05:08.673Z,0
2018-01-24T05:06:10.532Z,0
2018-01-24T05:07:12.328Z,0
2018-01-24T05:08:14.128Z,0
2018-01-24T05:09:16.010Z,0
2018-01-24T05:10:17.892Z,0
2018-01-24T05:11:19.755Z,0
2018-01-24T05:12:33.950Z,0
2018-01-24T05:13:35.809Z,0
2018-01-24T05:14:37.692Z,0
2018-01-24T05:15:39.548Z,0
2018-01-24T05:16:41.353Z,0
2018-01-24T05:17:43.143Z,0
2018-01-24T05:18:45.008Z,0
2018-01-24T05:19:46.868Z,0
2018-01-24T05:20:48.729Z,0
2018-01-24T05:22:02.881Z,0
2018-01-24T05:23:04.770Z,0
2018-01-24T05:24:06.648Z,0
2018-01-24T05:25:08.506Z,0
2018-01-24T05:26:10.302Z,0
2018-01-24T05:27:12.118Z,0
2018-01-24T05:28:13.987Z,0
2018-01-24T05:29:15.848Z,0
2018-01-24T05:30:17.733Z,0
2018-01-24T05:31:31.927Z,0
2018-01-24T05:32:33.788Z,0
2018-01-24T05:33:35.645Z,0
2018-01-24T05:34:37.528Z,0
2018-01-24T05:35:39.344Z,0
2018-01-24T05:36:41.139Z,0
2018-01-24T05:37:42.997Z,0
2018-01-24T05:38:44.863Z,0
2018-01-24T05:39:46.745Z,0
2018-01-24T05:41:00.896Z,0
2018-01-24T05:42:02.779Z,0
2018-01-24T05:43:04.656Z,0
2018-01-24T05:44:06.517Z,0
2018-01-24T05:45:08.323Z,0
2018-01-24T05:46:10.134Z,0
2018-01-24T05:47:12.013Z,0
2018-01-24T05:48:13.912Z,0
2018-01-24T05:49:15.763Z,0
2018-01-24T05:50:29.916Z,0
2018-01-24T05:51:31.772Z,0
2018-01-24T05:52:33.632Z,0
2018-01-24T05:53:35.513Z,0
2018-01-24T05:54:37.317Z,0
2018-01-24T05:55:39.132Z,0
2018-01-24T05:56:40.986Z,0
2018-01-24T05:57:42.841Z,0
2018-01-24T05:58:44.701Z,0
2018-01-24T05:59:58.859Z,0
2018-01-24T06:01:00.732Z,0
2018-01-24T06:02:02.594Z,0
2018-01-24T06:03:04.473Z,0
2018-01-24T06:04:06.302Z,0
2018-01-24T06:05:08.120Z,0
2018-01-24T06:06:09.996Z,0
2018-01-24T06:07:11.870Z,0
2018-01-24T06:08:13.712Z,0
2018-01-24T06:09:27.888Z,0
2018-01-24T06:10:29.773Z,0
2018-01-24T06:11:31.637Z,0
2018-01-24T06:12:33.522Z,0
2018-01-24T06:13:35.344Z,0
2018-01-24T06:14:37.165Z,0
2018-01-24T06:15:39.047Z,0
2018-01-24T06:16:40.947Z,0
2018-01-24T06:17:42.826Z,0
2018-01-24T06:18:56.956Z,0
2018-01-24T06:19:58.812Z,0
2018-01-24T06:21:00.674Z,0
2018-01-24T06:22:02.537Z,0
2018-01-24T06:23:04.361Z,0
2018-01-24T06:24:06.159Z,0
2018-01-24T06:25:08.022Z,0
2018-01-24T06:26:09.865Z,0
2018-01-24T06:27:11.685Z,0
2018-01-24T06:28:25.817Z,0
2018-01-24T06:29:27.683Z,0
2018-01-24T06:30:29.562Z,0
2018-01-24T06:31:31.431Z,0
2018-01-24T06:32:33.251Z,0
2018-01-24T06:33:35.053Z,0
2018-01-24T06:34:37.069Z,0
2018-01-24T06:35:38.793Z,0
2018-01-24T06:36:40.677Z,0
2018-01-24T06:37:54.873Z,0
2018-01-24T06:38:56.739Z,0
2018-01-24T06:39:58.622Z,0
2018-01-24T06:41:00.489Z,0
2018-01-24T06:42:02.313Z,0
2018-01-24T06:43:04.130Z,0
2018-01-24T06:44:05.983Z,5
2018-01-24T06:45:07.850Z,5
2018-01-24T06:46:09.696Z,5
2018-01-24T06:47:23.863Z,5
2018-01-24T06:48:25.749Z,5
2018-01-24T06:49:27.621Z,5
2018-01-24T06:50:29.500Z,5
2018-01-24T06:51:31.304Z,5
2018-01-24T06:52:33.103Z,5
2018-01-24T06:53:34.969Z,10
2018-01-24T06:54:36.857Z,10
2018-01-24T06:55:38.779Z,10
2018-01-24T06:56:52.880Z,10
2018-01-24T06:57:54.766Z,10
2018-01-24T06:58:56.652Z,15
2018-01-24T06:59:58.514Z,15
2018-01-24T07:01:00.316Z,15
2018-01-24T07:02:02.135Z,15
2018-01-24T07:03:03.998Z,15
2018-01-24T07:04:05.864Z,15
2018-01-24T07:05:07.735Z,15
2018-01-24T07:06:21.865Z,20
2018-01-24T07:07:23.671Z,20
2018-01-24T07:08:25.489Z,15
2018-01-24T07:09:27.318Z,15
2018-01-24T07:10:29.199Z,15
2018-01-24T07:11:31.067Z,20
2018-01-24T07:12:32.876Z,20
2018-01-24T07:13:34.696Z,25
2018-01-24T07:14:36.497Z,30
2018-01-24T07:15:50.695Z,40
2018-01-24T07:16:52.584Z,40
2018-01-24T07:17:54.472Z,45
2018-01-24T07:18:56.353Z,45
2018-01-24T07:19:58.158Z,50
2018-01-24T07:20:59.977Z,45
2018-01-24T07:22:01.860Z,40
2018-01-24T07:23:03.729Z,35
2018-01-24T07:24:05.615Z,35
2018-01-24T07:25:19.817Z,35
2018-01-24T07:26:21.684Z,35
2018-01-24T07:27:23.571Z,35
2018-01-24T07:28:25.448Z,40
2018-01-24T07:29:27.235Z,45
2018-01-24T07:30:29.043Z,50
2018-01-24T07:31:30.851Z,50
2018-01-24T07:32:32.737Z,60
2018-01-24T07:33:34.682Z,70
2018-01-24T07:34:48.760Z,75
2018-01-24T07:35:50.621Z,80
2018-01-24T07:36:52.488Z,75
2018-01-24T07:37:54.352Z,70
2018-01-24T07:38:56.156Z,65
2018-01-24T07:39:57.959Z,55
2018-01-24T07:40:59.845Z,55
2018-01-24T07:42:01.713Z,60
2018-01-24T07:43:03.600Z,60
2018-01-24T07:44:17.754Z,70
2018-01-24T07:45:19.620Z,65
2018-01-24T07:46:21.481Z,60
2018-01-24T07:47:23.346Z,60
2018-01-24T07:48:25.150Z,60
2018-01-24T07:49:26.956Z,60
2018-01-24T07:50:28.809Z,65
2018-01-24T07:51:30.610Z,70
2018-01-24T07:52:32.469Z,70
2018-01-24T07:53:46.581Z,70
2018-01-24T07:54:48.470Z,65
2018-01-24T07:55:50.358Z,60
2018-01-24T07:56:52.225Z,55
2018-01-24T07:57:54.030Z,55
2018-01-24T07:58:55.850Z,55
2018-01-24T07:59:57.731Z,60
2018-01-24T08:00:59.600Z,60
2018-01-24T08:02:01.489Z,65
2018-01-24T08:03:15.648Z,65
2018-01-24T08:04:17.536Z,65
2018-01-24T08:05:19.424Z,65
2018-01-24T08:06:21.286Z,65
2018-01-24T08:07:23.096Z,70
2018-01-24T08:08:24.915Z,70
2018-01-24T08:09:26.775Z,75
2018-01-24T08:10:28.651Z,75
2018-01-24T08:11:30.538Z,80
2018-01-24T08:12:44.689Z,85
2018-01-24T08:13:46.559Z,95
2018-01-24T08:14:48.447Z,100
2018-01-24T08:15:50.313Z,115
2018-01-24T08:16:52.141Z,115
2018-01-24T08:17:53.943Z,115
2018-01-24T08:18:55.814Z,125
2018-01-24T08:19:57.675Z,125
2018-01-24T08:20:59.546Z,145
2018-01-24T08:22:13.731Z,175
2018-01-24T08:23:15.584Z,190
2018-01-24T08:24:17.473Z,180
2018-01-24T08:25:19.363Z,180
2018-01-24T08:26:21.186Z,165
2018-01-24T08:27:22.988Z,150
2018-01-24T08:28:24.856Z,170
2018-01-24T08:29:26.745Z,195
2018-01-24T08:30:28.610Z,180
2018-01-24T08:31:42.799Z,170
2018-01-24T08:32:44.691Z,155
2018-01-24T08:33:46.557Z,130
2018-01-24T08:34:48.425Z,115
2018-01-24T08:35:50.249Z,115
2018-01-24T08:36:52.051Z,105
2018-01-24T08:37:53.920Z,105
2018-01-24T08:38:55.791Z,100
2018-01-24T08:39:57.679Z,95
2018-01-24T08:41:11.847Z,85
2018-01-24T08:42:13.727Z,80
2018-01-24T08:43:15.612Z,75
2018-01-24T08:44:17.481Z,75
2018-01-24T08:45:19.288Z,70
2018-01-24T08:46:21.090Z,65
2018-01-24T08:47:22.947Z,65
2018-01-24T08:48:24.821Z,70
2018-01-24T08:49:26.680Z,80
2018-01-24T08:50:40.812Z,85
2018-01-24T08:51:42.681Z,85
2018-01-24T08:52:44.546Z,90
2018-01-24T08:53:46.414Z,90
2018-01-24T08:54:48.243Z,95
2018-01-24T08:55:50.068Z,100
2018-01-24T08:56:51.892Z,105
2018-01-24T08:57:53.694Z,105
2018-01-24T08:58:55.494Z,110
2018-01-24T09:00:09.632Z,120
2018-01-24T09:01:11.521Z,135
2018-01-24T09:02:13.393Z,130
2018-01-24T09:03:15.275Z,135
2018-01-24T09:04:17.086Z,130
2018-01-24T09:05:18.913Z,130
2018-01-24T09:06:20.782Z,130
2018-01-24T09:07:22.651Z,125
2018-01-24T09:08:24.543Z,130
2018-01-24T09:09:38.696Z,135
2018-01-24T09:10:40.567Z,140
2018-01-24T09:11:42.449Z,130
2018-01-24T09:12:44.317Z,135
2018-01-24T09:13:46.115Z,140
2018-01-24T09:14:47.925Z,140
2018-01-24T09:15:49.749Z,125
2018-01-24T09:16:51.584Z,130
2018-01-24T09:17:53.402Z,140
2018-01-24T09:19:07.536Z,140
2018-01-24T09:20:09.407Z,145
2018-01-24T09:21:11.300Z,155
2018-01-24T09:22:13.193Z,155
2018-01-24T09:23:14.980Z,165
2018-01-24T09:24:16.786Z,170
2018-01-24T09:25:18.676Z,175
2018-01-24T09:26:20.573Z,190
2018-01-24T09:27:22.458Z,220
2018-01-24T09:28:36.614Z,220
2018-01-24T09:29:38.485Z,215
2018-01-24T09:30:40.377Z,215
2018-01-24T09:31:42.240Z,215
2018-01-24T09:32:44.045Z,230
2018-01-24T09:33:45.844Z,240
2018-01-24T09:34:47.708Z,260
2018-01-24T09:35:49.586Z,270
2018-01-24T09:36:51.471Z,270
2018-01-24T09:38:05.628Z,270
2018-01-24T09:39:07.494Z,270
2018-01-24T09:40:09.390Z,270
2018-01-24T09:41:11.275Z,270
2018-01-24T09:42:13.085Z,265
2018-01-24T09:43:14.883Z,265
2018-01-24T09:44:16.751Z,265
2018-01-24T09:45:18.623Z,250
2018-01-24T09:46:20.502Z,240
2018-01-24T09:47:34.705Z,245
2018-01-24T09:48:36.577Z,240
2018-01-24T09:49:38.472Z,230
2018-01-24T09:50:40.357Z,210
2018-01-24T09:51:42.157Z,190
2018-01-24T09:52:43.962Z,175
2018-01-24T09:53:45.825Z,170
2018-01-24T09:54:47.697Z,170
2018-01-24T09:55:49.584Z,170
2018-01-24T09:57:03.742Z,170
2018-01-24T09:58:05.632Z,170
2018-01-24T09:59:07.525Z,175
2018-01-24T10:00:09.414Z,185
2018-01-24T10:01:11.236Z,195
2018-01-24T10:02:13.045Z,195
2018-01-24T10:03:14.934Z,195
2018-01-24T10:04:16.802Z,195
2018-01-24T10:05:18.661Z,205
2018-01-24T10:06:32.848Z,205
2018-01-24T10:07:34.722Z,215
2018-01-24T10:08:36.606Z,210
2018-01-24T10:09:38.470Z,205
2018-01-24T10:10:40.277Z,205
2018-01-24T10:11:42.080Z,205
2018-01-24T10:12:43.972Z,210
2018-01-24T10:13:45.839Z,210
2018-01-24T10:14:47.729Z,220
2018-01-24T10:16:01.889Z,225
2018-01-24T10:17:03.754Z,240
2018-01-24T10:18:05.623Z,260
2018-01-24T10:19:07.515Z,270
2018-01-24T10:20:09.343Z,300
2018-01-24T10:21:11.166Z,310
2018-01-24T10:22:13.051Z,330
2018-01-24T10:23:14.918Z,305
2018-01-24T10:24:16.792Z,280
2018-01-24T10:25:31.001Z,250
2018-01-24T10:26:32.894Z,230
2018-01-24T10:27:34.786Z,220
2018-01-24T10:28:36.675Z,205
2018-01-24T10:29:38.480Z,205
2018-01-24T10:30:40.279Z,220
2018-01-24T10:31:42.148Z,240
2018-01-24T10:32:44.020Z,245
2018-01-24T10:33:45.909Z,250
2018-01-24T10:35:00.067Z,250
2018-01-24T10:36:01.956Z,250
2018-01-24T10:37:03.845Z,260
2018-01-24T10:38:05.716Z,280
2018-01-24T10:39:07.545Z,295
2018-01-24T10:40:09.371Z,300
2018-01-24T10:41:11.262Z,305
2018-01-24T10:42:13.164Z,305
2018-01-24T10:43:15.040Z,310
2018-01-24T10:44:29.181Z,300
2018-01-24T10:45:31.072Z,295
2018-01-24T10:46:32.961Z,290
2018-01-24T10:47:34.846Z,290
2018-01-24T10:48:36.652Z,290
2018-01-24T10:49:38.457Z,280
2018-01-24T10:50:40.349Z,275
2018-01-24T10:51:42.240Z,275
2018-01-24T10:52:44.100Z,270
2018-01-24T10:53:58.238Z,285
2018-01-24T10:55:00.105Z,285
2018-01-24T10:56:01.995Z,290
2018-01-24T10:57:03.861Z,300
2018-01-24T10:58:05.672Z,295
2018-01-24T10:59:07.467Z,285
2018-01-24T11:00:09.328Z,275
2018-01-24T11:01:11.201Z,260
2018-01-24T11:02:13.072Z,260
2018-01-24T11:03:27.232Z,270
2018-01-24T11:04:29.121Z,285
2018-01-24T11:05:31.001Z,275
2018-01-24T11:06:32.888Z,265
2018-01-24T11:07:34.691Z,270
2018-01-24T11:08:36.500Z,270
2018-01-24T11:09:38.382Z,260
2018-01-24T11:10:40.251Z,245
2018-01-24T11:11:42.121Z,235
2018-01-24T11:12:56.277Z,225
2018-01-24T11:13:58.144Z,230
2018-01-24T11:15:00.035Z,240
2018-01-24T11:16:01.877Z,240
2018-01-24T11:17:03.688Z,245
2018-01-24T11:18:05.511Z,235
2018-01-24T11:19:07.404Z,235
2018-01-24T11:20:09.296Z,230
2018-01-24T11:21:11.183Z,240
2018-01-24T11:22:25.322Z,235
2018-01-24T11:23:27.218Z,245
2018-01-24T11:24:29.110Z,235
2018-01-24T11:25:30.997Z,235
2018-01-24T11:26:32.824Z,235
2018-01-24T11:27:34.631Z,230
2018-01-24T11:28:36.523Z,220
2018-01-24T11:29:38.419Z,215
2018-01-24T11:30:40.327Z,220
2018-01-24T11:31:54.504Z,215
2018-01-24T11:32:56.393Z,215
2018-01-24T11:33:58.284Z,220
2018-01-24T11:35:00.169Z,220
2018-01-24T11:36:01.978Z,225
2018-01-24T11:37:03.805Z,235
2018-01-24T11:38:05.668Z,235
2018-01-24T11:39:07.557Z,240
2018-01-24T11:40:09.434Z,240
2018-01-24T11:41:23.563Z,245
2018-01-24T11:42:25.434Z,245
2018-01-24T11:43:27.325Z,245
2018-01-24T11:44:29.193Z,245
2018-01-24T11:45:31.026Z,240
2018-01-24T11:46:32.844Z,240
2018-01-24T11:47:34.714Z,245
2018-01-24T11:48:36.608Z,245
2018-01-24T11:49:38.489Z,255
2018-01-24T11:50:52.624Z,270
2018-01-24T11:51:54.488Z,285
2018-01-24T11:52:56.354Z,325
2018-01-24T11:53:58.226Z,320
2018-01-24T11:55:00.042Z,325
2018-01-24T11:56:01.859Z,350
2018-01-24T11:57:03.745Z,355
2018-01-24T11:58:05.638Z,375
2018-01-24T11:59:07.534Z,360
2018-01-24T12:00:21.689Z,325
2018-01-24T12:01:23.575Z,325
2018-01-24T12:02:25.450Z,345
2018-01-24T12:03:27.394Z,330
2018-01-24T12:04:29.234Z,315
2018-01-24T12:05:31.061Z,315
2018-01-24T12:06:32.959Z,310
2018-01-24T12:07:34.834Z,325
2018-01-24T12:08:36.701Z,330
2018-01-24T12:09:50.855Z,340
2018-01-24T12:10:52.727Z,335
2018-01-24T12:11:54.619Z,315
2018-01-24T12:12:56.512Z,315
2018-01-24T12:13:58.336Z,335
2018-01-24T12:15:00.142Z,300
2018-01-24T12:16:02.027Z,305
2018-01-24T12:17:03.904Z,295
2018-01-24T12:18:05.794Z,295
2018-01-24T12:19:19.955Z,310
2018-01-24T12:20:21.862Z,290
2018-01-24T12:21:23.758Z,305
2018-01-24T12:22:25.642Z,315
2018-01-24T12:23:27.445Z,310
2018-01-24T12:24:29.255Z,325
2018-01-24T12:25:31.050Z,295
2018-01-24T12:26:32.861Z,335
2018-01-24T12:27:34.684Z,305
2018-01-24T12:28:48.869Z,295
2018-01-24T12:29:50.741Z,295
2018-01-24T12:30:52.613Z,325
2018-01-24T12:31:54.505Z,340
2018-01-24T12:32:56.310Z,370
2018-01-24T12:33:58.138Z,330
2018-01-24T12:35:00.032Z,350
2018-01-24T12:36:01.901Z,335
2018-01-24T12:37:03.788Z,355
2018-01-24T12:38:17.978Z,345
2018-01-24T12:39:19.846Z,335
2018-01-24T12:40:21.718Z,340
2018-01-24T12:41:23.593Z,345
2018-01-24T12:42:25.425Z,310
2018-01-24T12:43:27.250Z,310
2018-01-24T12:44:29.117Z,300
2018-01-24T12:45:30.994Z,265
2018-01-24T12:46:32.881Z,275
2018-01-24T12:47:47.020Z,270
2018-01-24T12:48:48.893Z,255
2018-01-24T12:49:50.785Z,235
2018-01-24T12:50:52.676Z,245
2018-01-24T12:51:54.511Z,220
2018-01-24T12:52:56.340Z,200
2018-01-24T12:53:58.206Z,195
2018-01-24T12:55:00.081Z,215
2018-01-24T12:56:01.943Z,220
2018-01-24T12:57:16.082Z,185
2018-01-24T12:58:17.953Z,155
2018-01-24T12:59:19.824Z,145
2018-01-24T13:00:21.717Z,155
2018-01-24T13:01:23.542Z,165
2018-01-24T13:02:25.349Z,145
2018-01-24T13:03:27.220Z,155
2018-01-24T13:04:29.170Z,165
2018-01-24T13:05:31.102Z,165
2018-01-24T13:06:45.266Z,190
2018-01-24T13:07:47.153Z,170
2018-01-24T13:08:49.024Z,155
2018-01-24T13:09:50.889Z,155
2018-01-24T13:10:52.714Z,145
2018-01-24T13:11:54.518Z,140
2018-01-24T13:12:56.384Z,140
2018-01-24T13:13:58.254Z,155
2018-01-24T13:15:00.126Z,160
2018-01-24T13:16:14.285Z,160
2018-01-24T13:17:16.175Z,165
2018-01-24T13:18:18.048Z,165
2018-01-24T13:19:19.939Z,150
2018-01-24T13:20:21.768Z,135
2018-01-24T13:21:23.596Z,130
2018-01-24T13:22:25.462Z,120
2018-01-24T13:23:27.328Z,110
2018-01-24T13:24:29.212Z,100
2018-01-24T13:25:43.366Z,105
2018-01-24T13:26:45.258Z,115
2018-01-24T13:27:47.148Z,115
2018-01-24T13:28:49.021Z,115
2018-01-24T13:29:50.851Z,110
2018-01-24T13:30:52.669Z,105
2018-01-24T13:31:54.539Z,105
2018-01-24T13:32:56.409Z,95
2018-01-24T13:33:58.287Z,100
2018-01-24T13:35:12.423Z,110
2018-01-24T13:36:14.296Z,105
2018-01-24T13:37:16.202Z,105
2018-01-24T13:38:18.071Z,105
2018-01-24T13:39:19.904Z,105
2018-01-24T13:40:21.725Z,115
2018-01-24T13:41:23.615Z,115
2018-01-24T13:42:25.486Z,120
2018-01-24T13:43:27.394Z,125
2018-01-24T13:44:41.551Z,125
2018-01-24T13:45:43.422Z,120
2018-01-24T13:46:45.312Z,125
2018-01-24T13:47:47.184Z,115
2018-01-24T13:48:49.012Z,115
2018-01-24T13:49:50.829Z,125
2018-01-24T13:50:52.697Z,115
2018-01-24T13:51:54.575Z,125
2018-01-24T13:52:56.463Z,110
2018-01-24T13:54:10.597Z,105
2018-01-24T13:55:12.473Z,100
2018-01-24T13:56:15.105Z,90
2018-01-24T13:57:20.392Z,95
2018-01-24T13:58:22.199Z,90
2018-01-24T13:59:24.022Z,95
2018-01-24T14:00:25.891Z,90
2018-01-24T14:01:27.787Z,90
2018-01-24T14:02:29.672Z,105
2018-01-24T14:03:43.883Z,90
2018-01-24T14:04:45.771Z,85
2018-01-24T14:05:47.635Z,80
2018-01-24T14:06:49.506Z,70
2018-01-24T14:07:51.329Z,70
2018-01-24T14:08:53.127Z,70
2018-01-24T14:09:54.992Z,55
2018-01-24T14:10:56.861Z,55
2018-01-24T14:11:58.735Z,55
2018-01-24T14:13:12.940Z,55
2018-01-24T14:14:14.824Z,60
2018-01-24T14:15:16.715Z,55
2018-01-24T14:16:18.606Z,65
2018-01-24T14:17:20.427Z,60
2018-01-24T14:18:22.230Z,65
2018-01-24T14:19:24.098Z,60
2018-01-24T14:20:26.003Z,60
2018-01-24T14:21:27.924Z,55
2018-01-24T14:22:42.084Z,55
2018-01-24T14:23:43.955Z,50
2018-01-24T14:24:45.837Z,55
2018-01-24T14:25:47.706Z,45
2018-01-24T14:26:49.510Z,50
2018-01-24T14:27:51.333Z,45
2018-01-24T14:28:53.201Z,45
2018-01-24T14:29:55.088Z,40
2018-01-24T14:30:56.956Z,40
2018-01-24T14:32:11.118Z,35
2018-01-24T14:33:13.001Z,40
2018-01-24T14:34:14.874Z,40
2018-01-24T14:35:16.763Z,35
2018-01-24T14:36:18.587Z,40
2018-01-24T14:37:20.385Z,40
2018-01-24T14:38:22.270Z,35
2018-01-24T14:39:24.421Z,40
2018-01-24T14:40:27.779Z,35
2018-01-24T14:41:41.988Z,40
2018-01-24T14:42:43.849Z,40
2018-01-24T14:43:45.717Z,40
2018-01-24T14:44:47.603Z,40
2018-01-24T14:45:49.431Z,40
2018-01-24T14:46:51.244Z,40
2018-01-24T14:47:55.025Z,40
2018-01-24T14:48:55.072Z,40
2018-01-24T14:49:56.979Z,30
2018-01-24T14:51:11.134Z,25
2018-01-24T14:52:13.027Z,25
2018-01-24T14:53:14.915Z,20
2018-01-24T14:54:16.779Z,25
2018-01-24T14:55:18.609Z,20
2018-01-24T14:56:20.406Z,20
2018-01-24T14:57:22.295Z,20
2018-01-24T14:58:24.186Z,20
2018-01-24T14:59:26.069Z,20
2018-01-24T15:00:40.225Z,20
2018-01-24T15:01:42.115Z,20
2018-01-24T15:02:44.003Z,15
2018-01-24T15:03:45.889Z,15
2018-01-24T15:04:47.689Z,15